Time;durP1;ratioP1;P1;durP2;ratioP2;P2;SDS_P1;SDS_P2;PMS_P1;PMS_P2;Temp;Humidity;BMP_temperature;BMP_pressure;BME280_temperature;BME280_humidity;BME280_pressure;Samples;Min_cycle;Max_cycle;Signal;HPM_P1;HPM_P2
2021/10/07 00:00:23;;;;;;;2.47;1.70;;;9.70;99.90;;;;;;5053918;28;20237;-49
2021/10/07 00:02:50;;;;;;;2.47;1.97;;;9.60;99.90;;;;;;5057606;28;20222;-49
2021/10/07 00:05:16;;;;;;;2.23;2.00;;;9.60;99.90;;;;;;5055083;28;20223;-56
2021/10/07 00:07:43;;;;;;;2.03;1.90;;;9.50;99.90;;;;;;5063519;28;20199;-49
2021/10/07 00:10:10;;;;;;;2.27;1.90;;;9.60;99.90;;;;;;5057085;28;20202;-50
2021/10/07 00:12:37;;;;;;;4.53;2.10;;;9.50;99.90;;;;;;5060864;28;20226;-47
2021/10/07 00:15:07;;;;;;;2.37;2.10;;;9.50;99.90;;;;;;5063686;28;20214;-50
2021/10/07 00:17:34;;;;;;;1.80;1.70;;;9.40;99.90;;;;;;5065351;28;20195;-46
2021/10/07 00:20:00;;;;;;;4.77;2.07;;;9.30;99.90;;;;;;5063750;28;20218;-45
2021/10/07 00:22:27;;;;;;;2.57;2.30;;;9.20;99.90;;;;;;5059138;28;20222;-49
2021/10/07 00:24:54;;;;;;;1.80;1.70;;;9.20;99.90;;;;;;5063844;28;20203;-46
2021/10/07 00:27:20;;;;;;;1.43;1.33;;;9.10;99.90;;;;;;5050643;28;20714;-47
2021/10/07 00:29:49;;;;;;;1.90;1.77;;;9.00;99.90;;;;;;5063404;28;20206;-48
2021/10/07 00:32:20;;;;;;;2.00;1.70;;;9.00;99.90;;;;;;5060646;28;20229;-44
2021/10/07 00:35:06;;;;;;;1.83;1.70;;;8.90;99.90;;;;;;5063566;28;20285;-51
2021/10/07 00:40:17;;;;;;;2.07;1.70;;;8.80;99.90;;;;;;5060191;28;20226;-52
2021/10/07 00:42:44;;;;;;;1.77;1.67;;;8.70;99.90;;;;;;5049831;28;20229;-52
2021/10/07 00:45:10;;;;;;;4.43;1.80;;;8.70;99.90;;;;;;5060837;28;20213;-52
2021/10/07 00:47:38;;;;;;;1.70;1.60;;;8.70;99.90;;;;;;5061969;28;20213;-51
2021/10/07 00:50:06;;;;;;;1.90;1.80;;;8.60;99.90;;;;;;5062885;28;20208;-50
2021/10/07 00:52:32;;;;;;;2.20;2.00;;;8.60;99.90;;;;;;5060233;28;20219;-49
2021/10/07 00:54:59;;;;;;;2.57;2.13;;;8.60;99.90;;;;;;5063671;28;20655;-46
2021/10/07 00:57:26;;;;;;;1.87;1.67;;;8.50;99.90;;;;;;5050873;28;20214;-48
2021/10/07 00:59:53;;;;;;;1.77;1.60;;;8.50;99.90;;;;;;5063262;28;20226;-50
2021/10/07 01:02:20;;;;;;;2.33;1.90;;;8.50;99.90;;;;;;5059505;28;20676;-50
2021/10/07 01:04:48;;;;;;;2.20;1.90;;;8.40;99.90;;;;;;5063530;28;20202;-46
2021/10/07 01:07:16;;;;;;;2.27;2.00;;;8.40;99.90;;;;;;5060882;28;20206;-49
2021/10/07 01:09:44;;;;;;;5.43;2.00;;;8.40;99.90;;;;;;5062704;28;20237;-48
2021/10/07 01:12:11;;;;;;;2.63;1.90;;;8.40;99.90;;;;;;5054861;28;20226;-48
2021/10/07 01:14:44;;;;;;;2.70;1.70;;;8.40;99.90;;;;;;5055599;28;20320;-46
2021/10/07 01:17:12;;;;;;;2.23;2.03;;;8.40;99.90;;;;;;5065290;28;20203;-52
2021/10/07 01:19:40;;;;;;;2.47;2.00;;;8.30;99.90;;;;;;5065353;28;20214;-47
2021/10/07 01:22:07;;;;;;;2.47;1.90;;;8.30;99.90;;;;;;5066297;28;20219;-49
2021/10/07 01:24:34;;;;;;;2.10;2.00;;;8.30;99.90;;;;;;5064496;28;20194;-49
2021/10/07 01:27:01;;;;;;;1.70;1.60;;;8.30;99.90;;;;;;5056887;28;20213;-47
2021/10/07 01:29:28;;;;;;;2.47;1.83;;;8.20;99.90;;;;;;5053057;28;20198;-50
2021/10/07 01:31:55;;;;;;;3.23;1.90;;;8.20;99.90;;;;;;5063758;28;20223;-51
2021/10/07 01:34:23;;;;;;;3.20;2.10;;;8.20;99.90;;;;;;5067179;28;20214;-49
2021/10/07 01:36:51;;;;;;;2.67;1.93;;;8.20;99.90;;;;;;5063320;28;20213;-47
2021/10/07 01:39:18;;;;;;;2.63;1.70;;;8.20;99.90;;;;;;5066773;28;20202;-46
2021/10/07 01:41:45;;;;;;;2.97;2.67;;;8.20;99.90;;;;;;5062490;28;20281;-45
2021/10/07 01:44:11;;;;;;;2.37;2.27;;;8.20;99.90;;;;;;5053463;28;20202;-46
2021/10/07 01:46:38;;;;;;;2.70;2.10;;;8.10;99.90;;;;;;5063769;28;20567;-49
2021/10/07 01:49:07;;;;;;;2.77;2.07;;;8.10;99.90;;;;;;5055492;28;20206;-44
2021/10/07 01:51:33;;;;;;;4.17;1.83;;;8.10;99.90;;;;;;5065030;28;20210;-51
2021/10/07 01:54:01;;;;;;;3.43;2.13;;;8.00;99.90;;;;;;5064384;28;20198;-45
2021/10/07 01:56:28;;;;;;;3.17;2.00;;;8.00;99.90;;;;;;5065220;28;20202;-47
2021/10/07 01:58:55;;;;;;;2.10;2.00;;;8.00;99.90;;;;;;5060535;28;20634;-49
2021/10/07 02:01:21;;;;;;;2.00;1.80;;;8.00;99.90;;;;;;5056933;28;20225;-47
2021/10/07 02:03:48;;;;;;;2.03;1.93;;;8.00;99.90;;;;;;5064938;28;20226;-51
2021/10/07 02:06:15;;;;;;;3.43;2.10;;;8.00;99.90;;;;;;5062679;28;20947;-45
2021/10/07 02:08:42;;;;;;;2.00;1.90;;;7.90;99.90;;;;;;5066157;28;20206;-45
2021/10/07 02:11:10;;;;;;;2.23;1.93;;;8.00;99.90;;;;;;5062064;28;20737;-52
2021/10/07 02:13:37;;;;;;;2.00;1.80;;;8.10;99.90;;;;;;5066118;28;20250;-45
2021/10/07 02:16:04;;;;;;;2.20;1.90;;;8.20;99.90;;;;;;5050217;28;20221;-52
2021/10/07 02:18:30;;;;;;;2.77;1.90;;;8.20;99.90;;;;;;5065203;28;20198;-46
2021/10/07 02:20:57;;;;;;;4.13;2.43;;;8.10;99.90;;;;;;5064058;28;20226;-53
2021/10/07 02:23:24;;;;;;;1.83;1.73;;;8.10;99.90;;;;;;5064275;28;20211;-50
2021/10/07 02:25:51;;;;;;;4.13;2.40;;;8.10;99.90;;;;;;5066227;28;20664;-49
2021/10/07 02:28:19;;;;;;;2.17;1.97;;;8.00;99.90;;;;;;5063071;28;20202;-47
2021/10/07 02:30:45;;;;;;;2.87;2.20;;;7.90;99.90;;;;;;5053396;28;20213;-48
2021/10/07 02:33:12;;;;;;;3.47;1.83;;;7.90;99.90;;;;;;5060971;28;20233;-50
2021/10/07 02:35:40;;;;;;;3.30;2.37;;;7.90;99.90;;;;;;5065823;28;20529;-48
2021/10/07 02:38:07;;;;;;;2.27;2.07;;;7.90;99.90;;;;;;5061979;28;20204;-55
2021/10/07 02:40:34;;;;;;;2.30;2.10;;;7.90;99.90;;;;;;5065545;28;20219;-45
2021/10/07 02:43:01;;;;;;;2.20;2.00;;;7.90;99.90;;;;;;5063343;28;20219;-52
2021/10/07 02:45:29;;;;;;;4.37;2.20;;;7.90;99.90;;;;;;5051029;28;21984;-46
2021/10/07 02:47:55;;;;;;;3.53;2.20;;;7.80;99.90;;;;;;5064115;28;20198;-48
2021/10/07 02:50:27;;;;;;;2.43;2.23;;;7.70;99.90;;;;;;5062932;28;20826;-51
2021/10/07 02:52:54;;;;;;;2.73;2.13;;;7.70;99.90;;;;;;5064324;28;20229;-48
2021/10/07 02:55:21;;;;;;;2.53;2.07;;;7.70;99.90;;;;;;5063162;28;20195;-51
2021/10/07 02:57:48;;;;;;;2.40;1.90;;;7.60;99.90;;;;;;5065443;28;20203;-53
2021/10/07 03:00:18;;;;;;;2.20;1.93;;;7.70;99.90;;;;;;5050023;28;22048;-49
2021/10/07 03:02:46;;;;;;;2.53;2.10;;;7.70;99.90;;;;;;5065329;28;20222;-48
2021/10/07 03:05:14;;;;;;;2.20;2.00;;;7.80;99.90;;;;;;5061700;28;20858;-50
2021/10/07 03:07:41;;;;;;;3.63;1.73;;;7.70;99.90;;;;;;5065549;28;20226;-47
2021/10/07 03:10:10;;;;;;;2.43;2.23;;;7.70;99.90;;;;;;5061249;28;20226;-50
2021/10/07 03:12:36;;;;;;;2.40;2.20;;;7.70;99.90;;;;;;5064979;28;20225;-45
2021/10/07 03:15:03;;;;;;;2.60;1.90;;;7.70;99.90;;;;;;5053112;28;20206;-53
2021/10/07 03:17:30;;;;;;;2.50;2.20;;;7.70;99.90;;;;;;5061674;28;20210;-45
2021/10/07 03:19:58;;;;;;;2.37;2.00;;;7.70;99.90;;;;;;5063222;28;20221;-50
2021/10/07 03:22:26;;;;;;;2.70;2.47;;;7.70;99.90;;;;;;5063007;28;20236;-49
2021/10/07 03:24:52;;;;;;;2.53;2.10;;;7.70;99.90;;;;;;5063902;28;20194;-51
2021/10/07 03:27:19;;;;;;;2.00;1.80;;;7.70;99.90;;;;;;5062064;28;20222;-47
2021/10/07 03:29:46;;;;;;;4.10;2.13;;;7.60;99.90;;;;;;5064712;28;20195;-51
2021/10/07 03:32:13;;;;;;;2.20;2.10;;;7.50;99.90;;;;;;5047332;28;20218;-46
2021/10/07 03:34:39;;;;;;;2.03;1.93;;;7.50;99.90;;;;;;5063438;28;20206;-47
2021/10/07 03:37:07;;;;;;;2.53;2.27;;;7.50;99.90;;;;;;5061096;28;20670;-46
2021/10/07 03:39:36;;;;;;;3.03;2.03;;;7.50;99.90;;;;;;5064188;28;20260;-50
2021/10/07 03:42:03;;;;;;;3.97;2.10;;;7.60;99.90;;;;;;5061417;28;20226;-51
2021/10/07 03:44:29;;;;;;;2.00;1.90;;;7.60;99.90;;;;;;5062969;28;20191;-52
2021/10/07 03:46:57;;;;;;;3.97;2.23;;;7.60;99.90;;;;;;5058775;28;20676;-50
2021/10/07 03:49:24;;;;;;;2.27;2.00;;;7.60;99.90;;;;;;5056763;28;20222;-49
2021/10/07 03:51:50;;;;;;;3.20;2.10;;;7.50;99.90;;;;;;5063583;28;20194;-49
2021/10/07 03:54:18;;;;;;;2.80;2.10;;;7.40;99.90;;;;;;5061045;28;20925;-49
2021/10/07 03:56:45;;;;;;;3.47;2.00;;;7.40;99.90;;;;;;5064292;28;20195;-47
2021/10/07 03:59:11;;;;;;;3.03;2.00;;;7.40;99.90;;;;;;5060137;28;20191;-45
2021/10/07 04:01:38;;;;;;;2.50;2.30;;;7.40;99.90;;;;;;5063264;28;20699;-47
2021/10/07 04:04:05;;;;;;;2.60;2.07;;;7.40;99.90;;;;;;5050232;28;20211;-54
2021/10/07 04:06:32;;;;;;;2.77;2.20;;;7.30;99.90;;;;;;5058909;28;20691;-45
2021/10/07 04:08:58;;;;;;;4.17;2.30;;;7.30;99.90;;;;;;5062193;28;20210;-55
2021/10/07 04:11:26;;;;;;;2.50;2.23;;;7.30;99.90;;;;;;5062081;28;20964;-48
2021/10/07 04:13:53;;;;;;;3.03;1.80;;;7.30;99.90;;;;;;5062752;28;20226;-51
2021/10/07 04:16:20;;;;;;;2.90;2.10;;;7.30;99.90;;;;;;5065502;28;20283;-49
2021/10/07 04:18:46;;;;;;;2.80;2.20;;;7.40;99.90;;;;;;5050975;28;20206;-52
2021/10/07 04:21:13;;;;;;;2.50;2.13;;;7.40;99.90;;;;;;5054464;28;20214;-50
2021/10/07 04:23:40;;;;;;;8.47;2.93;;;7.40;99.90;;;;;;5063973;28;20588;-48
2021/10/07 04:26:07;;;;;;;2.77;2.07;;;7.40;99.90;;;;;;5061032;28;20691;-51
2021/10/07 04:28:36;;;;;;;2.17;1.90;;;7.40;99.90;;;;;;5064713;28;20285;-49
2021/10/07 04:31:03;;;;;;;3.17;2.10;;;7.30;99.90;;;;;;5061183;28;20205;-53
2021/10/07 04:33:29;;;;;;;3.87;2.03;;;7.20;99.90;;;;;;5050471;28;20269;-51
2021/10/07 04:35:56;;;;;;;2.20;2.00;;;7.10;99.90;;;;;;5061302;28;20533;-51
2021/10/07 04:38:23;;;;;;;1.93;1.83;;;7.10;99.90;;;;;;5058276;28;20214;-49
2021/10/07 04:40:49;;;;;;;3.33;2.00;;;7.10;99.90;;;;;;5063262;28;20210;-50
2021/10/07 04:43:16;;;;;;;3.90;2.03;;;7.00;99.90;;;;;;5060809;28;20210;-48
2021/10/07 04:45:44;;;;;;;2.70;2.50;;;7.00;99.90;;;;;;5062579;28;20206;-52
2021/10/07 04:48:12;;;;;;;2.73;2.53;;;7.00;99.90;;;;;;5046352;28;20198;-45
2021/10/07 04:50:39;;;;;;;3.20;2.83;;;7.00;99.90;;;;;;5062157;28;20191;-49
2021/10/07 04:53:05;;;;;;;3.97;2.17;;;7.00;99.90;;;;;;5059882;28;20223;-48
2021/10/07 04:55:32;;;;;;;2.67;2.40;;;6.90;99.90;;;;;;5063207;28;20584;-47
2021/10/07 04:57:59;;;;;;;2.50;2.30;;;6.90;99.90;;;;;;5053192;28;20207;-49
2021/10/07 05:00:25;;;;;;;2.57;2.37;;;6.90;99.90;;;;;;5044102;28;20840;-50
2021/10/07 05:02:53;;;;;;;2.80;2.60;;;6.90;99.90;;;;;;5056850;28;20225;-52
2021/10/07 05:05:20;;;;;;;2.90;2.40;;;7.00;99.90;;;;;;5048405;28;20260;-46
2021/10/07 05:07:46;;;;;;;5.27;2.30;;;7.00;99.90;;;;;;5062979;28;20214;-51
2021/10/07 05:10:13;;;;;;;3.40;2.43;;;7.00;99.90;;;;;;5059251;28;20190;-47
2021/10/07 05:12:40;;;;;;;4.90;2.63;;;7.00;99.90;;;;;;5062604;28;20222;-44
2021/10/07 05:15:09;;;;;;;3.00;2.70;;;6.90;99.90;;;;;;5059224;28;20239;-47
2021/10/07 05:17:36;;;;;;;3.43;2.23;;;6.90;99.90;;;;;;5065444;28;20256;-45
2021/10/07 05:20:06;;;;;;;3.30;2.30;;;6.90;99.90;;;;;;5042947;28;20218;-53
2021/10/07 05:22:32;;;;;;;3.43;2.13;;;6.90;99.90;;;;;;5060622;28;21145;-46
2021/10/07 05:24:59;;;;;;;3.70;2.10;;;7.00;99.90;;;;;;5055823;28;20263;-52
2021/10/07 05:27:26;;;;;;;4.33;2.13;;;7.00;99.90;;;;;;5059938;28;20205;-46
2021/10/07 05:29:52;;;;;;;1.93;1.83;;;6.90;99.90;;;;;;5053706;28;20199;-50
2021/10/07 05:32:19;;;;;;;2.30;2.10;;;6.80;99.90;;;;;;5060132;28;20218;-50
2021/10/07 05:34:45;;;;;;;2.40;2.30;;;6.80;99.90;;;;;;5054533;28;20207;-54
2021/10/07 05:37:13;;;;;;;3.10;1.80;;;6.80;99.90;;;;;;5048552;28;20210;-52
2021/10/07 05:39:40;;;;;;;4.17;2.43;;;6.70;99.90;;;;;;5055486;28;20206;-50
2021/10/07 05:42:07;;;;;;;2.50;2.30;;;6.70;99.90;;;;;;5050604;28;20222;-46
2021/10/07 05:44:34;;;;;;;3.30;2.70;;;6.80;99.90;;;;;;5059759;28;20206;-55
2021/10/07 05:47:01;;;;;;;3.10;2.00;;;6.70;99.90;;;;;;5053483;28;21314;-52
2021/10/07 05:49:28;;;;;;;2.10;2.00;;;6.70;99.90;;;;;;5058277;28;20191;-49
2021/10/07 05:51:55;;;;;;;7.43;2.20;;;6.60;99.90;;;;;;5037060;28;20233;-52
2021/10/07 05:54:24;;;;;;;2.60;2.40;;;6.60;99.90;;;;;;5062782;28;20202;-47
2021/10/07 05:56:50;;;;;;;2.70;2.50;;;6.70;99.90;;;;;;5053834;28;20194;-49
2021/10/07 05:59:17;;;;;;;3.20;2.87;;;6.70;99.90;;;;;;5053382;28;20221;-50
2021/10/07 06:01:44;;;;;;;4.10;2.60;;;6.90;99.90;;;;;;5058962;28;20202;-53
2021/10/07 06:04:11;;;;;;;3.87;2.30;;;6.90;99.90;;;;;;5060283;28;20203;-47
2021/10/07 06:06:38;;;;;;;4.63;2.70;;;7.00;99.90;;;;;;5049184;28;20218;-52
2021/10/07 06:09:07;;;;;;;4.83;2.50;;;7.00;99.90;;;;;;5064055;28;20518;-52
2021/10/07 06:11:36;;;;;;;3.23;2.33;;;7.00;99.90;;;;;;5060196;28;20214;-49
2021/10/07 06:14:03;;;;;;;3.53;2.50;;;7.00;99.90;;;;;;5063166;28;20222;-50
2021/10/07 06:16:31;;;;;;;3.47;2.73;;;7.00;99.90;;;;;;5063254;28;20199;-53
2021/10/07 06:18:58;;;;;;;2.83;2.33;;;7.10;99.90;;;;;;5058224;28;21411;-54
2021/10/07 06:21:24;;;;;;;2.93;2.67;;;7.10;99.90;;;;;;5052434;28;20198;-52
2021/10/07 06:23:51;;;;;;;3.27;2.63;;;7.10;99.90;;;;;;5060444;28;20880;-49
2021/10/07 06:26:18;;;;;;;3.37;2.50;;;7.20;99.90;;;;;;5064154;28;20205;-46
2021/10/07 06:28:47;;;;;;;4.53;2.60;;;7.30;99.90;;;;;;5053238;28;20202;-52
2021/10/07 06:31:14;;;;;;;5.90;2.70;;;7.30;99.90;;;;;;5057860;28;20269;-48
2021/10/07 06:33:40;;;;;;;8.13;3.03;;;7.40;99.90;;;;;;5054222;28;20267;-52
2021/10/07 06:36:07;;;;;;;8.37;3.03;;;7.40;99.90;;;;;;5053504;28;20199;-49
2021/10/07 06:38:33;;;;;;;5.33;3.27;;;7.40;99.90;;;;;;5047184;28;20206;-54
2021/10/07 06:41:00;;;;;;;9.53;2.97;;;7.40;99.90;;;;;;5061216;28;20183;-45
2021/10/07 06:43:27;;;;;;;10.00;3.20;;;7.50;99.90;;;;;;5059535;28;20245;-54
2021/10/07 06:45:55;;;;;;;10.70;3.37;;;7.50;99.90;;;;;;5054564;28;20201;-48
2021/10/07 06:48:21;;;;;;;11.73;3.30;;;7.60;99.90;;;;;;5063089;28;20203;-50
2021/10/07 06:50:48;;;;;;;9.03;3.17;;;7.70;99.90;;;;;;5049264;28;20195;-45
2021/10/07 06:53:15;;;;;;;6.93;2.70;;;7.70;99.90;;;;;;5052650;28;20222;-45
2021/10/07 06:55:41;;;;;;;11.57;3.20;;;7.80;99.90;;;;;;5053358;28;20261;-54
2021/10/07 06:58:08;;;;;;;8.57;2.90;;;7.90;99.90;;;;;;5056604;28;20661;-46
2021/10/07 07:00:35;;;;;;;5.90;3.30;;;8.00;99.90;;;;;;5052690;28;20209;-51
2021/10/07 07:03:06;;;;;;;10.67;3.30;;;8.00;99.90;;;;;;5053649;28;20226;-54
2021/10/07 07:05:32;;;;;;;8.23;3.00;;;8.10;99.90;;;;;;5056032;28;20202;-50
2021/10/07 07:07:59;;;;;;;4.77;3.00;;;8.20;99.90;;;;;;5050090;28;20963;-47
2021/10/07 07:10:26;;;;;;;5.07;2.97;;;8.20;99.90;;;;;;5056428;28;20206;-52
2021/10/07 07:12:52;;;;;;;4.60;3.63;;;8.30;99.90;;;;;;5057143;28;20215;-53
2021/10/07 07:15:20;;;;;;;7.07;3.80;;;8.40;99.90;;;;;;5056421;28;20206;-51
2021/10/07 07:17:47;;;;;;;9.10;3.30;;;8.50;99.90;;;;;;5055738;28;20202;-49
2021/10/07 07:20:16;;;;;;;4.63;3.60;;;8.60;99.90;;;;;;5051447;28;20198;-52
2021/10/07 07:22:42;;;;;;;3.80;3.40;;;8.70;99.90;;;;;;5047885;28;20237;-53
2021/10/07 07:25:10;;;;;;;3.87;3.57;;;8.80;99.90;;;;;;5054133;28;20690;-55
2021/10/07 07:27:37;;;;;;;4.83;4.40;;;8.90;99.90;;;;;;5062081;28;20206;-48
2021/10/07 07:30:04;;;;;;;5.20;3.50;;;9.00;99.90;;;;;;5056124;28;20576;-52
2021/10/07 07:32:31;;;;;;;4.87;3.70;;;9.10;99.90;;;;;;5060050;28;20230;-47
2021/10/07 07:34:57;;;;;;;4.30;3.90;;;9.20;99.90;;;;;;5054650;28;20203;-49
2021/10/07 07:37:25;;;;;;;5.93;3.73;;;9.30;99.90;;;;;;5048462;28;20209;-48
2021/10/07 07:39:52;;;;;;;6.10;4.13;;;9.40;99.90;;;;;;5059894;28;20638;-52
2021/10/07 07:42:19;;;;;;;4.23;3.80;;;9.50;99.90;;;;;;5053669;28;20219;-48
2021/10/07 07:44:46;;;;;;;4.30;3.77;;;9.60;99.90;;;;;;5050522;28;20202;-48
2021/10/07 07:47:13;;;;;;;4.73;3.90;;;9.60;99.90;;;;;;5050052;28;20206;-50
2021/10/07 07:49:40;;;;;;;4.30;3.90;;;9.70;99.90;;;;;;5059086;28;20209;-46
2021/10/07 07:52:07;;;;;;;5.20;4.60;;;9.80;99.90;;;;;;5051911;28;20215;-49
2021/10/07 07:54:35;;;;;;;3.93;3.53;;;10.00;99.90;;;;;;5056573;28;20222;-48
2021/10/07 07:57:02;;;;;;;6.70;4.30;;;10.10;99.90;;;;;;5055918;28;20221;-51
2021/10/07 07:59:29;;;;;;;6.93;3.70;;;10.10;99.90;;;;;;5059232;28;20198;-48
2021/10/07 08:01:55;;;;;;;3.70;3.40;;;10.20;99.90;;;;;;5061632;28;20632;-49
2021/10/07 08:04:22;;;;;;;5.43;3.87;;;10.30;99.90;;;;;;5049008;28;20218;-50
2021/10/07 08:06:48;;;;;;;4.20;3.57;;;10.40;99.90;;;;;;5058051;28;20210;-48
2021/10/07 08:09:15;;;;;;;5.00;3.83;;;10.50;99.90;;;;;;5044186;28;20203;-48
2021/10/07 08:11:43;;;;;;;4.13;3.53;;;10.60;99.90;;;;;;5061659;28;20211;-49
2021/10/07 08:14:10;;;;;;;4.60;4.20;;;10.60;99.90;;;;;;5056224;28;20567;-52
2021/10/07 08:16:37;;;;;;;4.07;3.67;;;10.70;99.90;;;;;;5052962;28;20195;-47
2021/10/07 08:19:04;;;;;;;5.20;3.63;;;10.80;99.90;;;;;;5054458;28;20211;-51
2021/10/07 08:21:31;;;;;;;5.33;3.80;;;10.90;99.90;;;;;;5055957;28;20211;-48
2021/10/07 08:23:58;;;;;;;4.47;4.07;;;11.00;99.90;;;;;;5045247;28;20231;-49
2021/10/07 08:26:24;;;;;;;6.17;4.60;;;11.10;99.90;;;;;;5054540;28;20204;-50
2021/10/07 08:28:52;;;;;;;4.70;3.80;;;11.20;99.90;;;;;;5052961;28;20195;-46
2021/10/07 08:31:19;;;;;;;5.40;3.63;;;11.30;99.90;;;;;;5057396;28;20205;-56
2021/10/07 08:33:46;;;;;;;3.80;3.50;;;11.40;99.90;;;;;;5050944;28;20968;-48
2021/10/07 08:36:12;;;;;;;5.63;3.47;;;11.50;99.90;;;;;;5063173;28;20203;-47
2021/10/07 08:38:39;;;;;;;3.73;3.43;;;11.60;99.90;;;;;;5042845;28;20202;-52
2021/10/07 08:41:06;;;;;;;3.40;3.10;;;11.70;99.90;;;;;;5063068;28;20652;-49
2021/10/07 08:43:33;;;;;;;5.63;3.70;;;;;;;;;;5059163;28;20221;-53
2021/10/07 08:46:08;;;;;;;5.03;3.53;;;11.90;99.90;;;;;;5060705;28;20214;-47
2021/10/07 08:48:35;;;;;;;6.40;3.17;;;12.10;99.90;;;;;;5059267;28;20194;-55
2021/10/07 08:51:02;;;;;;;4.80;3.50;;;12.30;99.90;;;;;;5062110;28;20214;-46
2021/10/07 08:53:29;;;;;;;3.47;3.17;;;12.40;99.90;;;;;;5054305;28;20592;-48
2021/10/07 08:55:55;;;;;;;5.37;3.30;;;12.50;99.90;;;;;;5057417;28;21000;-51
2021/10/07 08:58:22;;;;;;;3.90;3.40;;;12.60;99.90;;;;;;5062792;28;20199;-54
2021/10/07 09:00:49;;;;;;;3.80;3.43;;;12.80;99.90;;;;;;5059648;28;20199;-47
2021/10/07 09:03:21;;;;;;;5.90;3.07;;;12.90;99.90;;;;;;5063128;28;20218;-47
2021/10/07 09:05:49;;;;;;;5.03;2.70;;;13.10;99.90;;;;;;5059983;28;20201;-46
2021/10/07 09:08:16;;;;;;;4.43;2.90;;;13.30;99.90;;;;;;5063301;28;20206;-47
2021/10/07 09:10:46;;;;;;;4.37;2.83;;;13.40;99.90;;;;;;5048732;28;20762;-48
2021/10/07 09:13:15;;;;;;;3.77;2.60;;;13.60;99.90;;;;;;5058043;28;20297;-45
2021/10/07 09:15:45;;;;;;;4.63;2.40;;;13.60;99.90;;;;;;5058568;28;20194;-46
2021/10/07 09:18:12;;;;;;;4.60;2.40;;;13.70;99.90;;;;;;5057160;28;20204;-45
2021/10/07 09:20:42;;;;;;;3.37;2.50;;;13.80;99.90;;;;;;5058965;28;20972;-48
2021/10/07 09:23:12;;;;;;;3.63;2.13;;;13.80;99.90;;;;;;5063228;28;20221;-50
2021/10/07 09:25:56;;;;;;;5.07;2.23;;;13.90;99.90;;;;;;5046672;28;20209;-45
2021/10/07 09:28:24;;;;;;;3.60;2.20;;;14.00;99.90;;;;;;5061733;28;20210;-50
2021/10/07 09:30:55;;;;;;;3.53;2.00;;;14.10;99.90;;;;;;5060122;28;20190;-46
2021/10/07 09:33:35;;;;;;;5.17;2.40;;;14.30;99.90;;;;;;5061651;28;20222;-51
2021/10/07 09:36:17;;;;;;;2.30;1.97;;;14.60;99.90;;;;;;5063214;28;20282;-50
2021/10/07 09:38:45;;;;;;;3.97;2.27;;;14.60;99.90;;;;;;5064555;28;20197;-45
2021/10/07 09:41:15;;;;;;;4.77;2.30;;;14.70;99.90;;;;;;5053872;28;20211;-48
2021/10/07 09:43:47;;;;;;;2.27;2.07;;;14.70;99.90;;;;;;5062076;28;20214;-45
2021/10/07 09:46:41;;;;;;;4.03;1.83;;;14.80;99.90;;;;;;5066207;28;20195;-51
2021/10/07 09:49:08;;;;;;;3.43;1.90;;;14.80;99.90;;;;;;5066488;28;20200;-44
2021/10/07 09:51:40;;;;;;;2.97;1.93;;;14.80;99.90;;;;;;5062979;28;20203;-55
2021/10/07 09:54:07;;;;;;;4.30;1.80;;;14.90;99.90;;;;;;5066357;28;20694;-48
2021/10/07 09:56:35;;;;;;;4.10;1.80;;;15.00;99.90;;;;;;5053794;28;20538;-49
2021/10/07 09:59:09;;;;;;;3.03;1.50;;;15.10;99.90;;;;;;5064756;28;20226;-50
2021/10/07 10:01:36;;;;;;;1.87;1.53;;;15.20;99.90;;;;;;5061174;28;20194;-54
2021/10/07 10:04:03;;;;;;;4.00;1.80;;;15.10;99.90;;;;;;5066155;28;20191;-47
2021/10/07 10:06:30;;;;;;;1.30;1.20;;;15.20;99.90;;;;;;5064175;28;20526;-47
2021/10/07 10:08:58;;;;;;;2.17;1.50;;;15.10;99.90;;;;;;5069699;28;20190;-48
2021/10/07 10:11:25;;;;;;;1.93;1.33;;;15.10;99.90;;;;;;5060031;28;20206;-47
2021/10/07 10:13:52;;;;;;;1.60;1.40;;;15.10;99.90;;;;;;5061262;28;20211;-47
2021/10/07 10:16:19;;;;;;;2.27;1.37;;;15.20;99.90;;;;;;5066016;28;20194;-48
2021/10/07 10:18:53;;;;;;;1.60;1.40;;;15.20;99.90;;;;;;5056178;28;20875;-47
2021/10/07 10:21:21;;;;;;;2.13;1.20;;;15.20;99.90;;;;;;5060065;28;20630;-49
2021/10/07 10:23:49;;;;;;;2.00;1.30;;;15.30;99.90;;;;;;5062777;28;20211;-45
2021/10/07 10:26:17;;;;;;;2.40;1.17;;;15.30;99.90;;;;;;5066121;28;20194;-52
2021/10/07 10:28:50;;;;;;;2.20;1.47;;;15.40;99.90;;;;;;5049640;28;20199;-47
2021/10/07 10:31:27;;;;;;;3.63;1.40;;;15.40;99.90;;;;;;5065617;28;20731;-47
2021/10/07 10:34:09;;;;;;;2.40;1.60;;;15.50;99.90;;;;;;5063581;28;20305;-51
2021/10/07 10:36:39;;;;;;;1.80;1.00;;;15.50;99.90;;;;;;5062575;28;20585;-47
2021/10/07 10:39:09;;;;;;;4.23;1.37;;;15.50;99.90;;;;;;5065884;28;20205;-47
2021/10/07 10:41:55;;;;;;;1.33;0.80;;;15.60;99.90;;;;;;5061510;28;20256;-49
2021/10/07 10:44:41;;;;;;;2.17;1.20;;;15.60;99.90;;;;;;5049440;28;20586;-54
2021/10/07 10:47:27;;;;;;;3.07;1.20;;;15.70;99.90;;;;;;5063059;28;20294;-47
2021/10/07 10:49:56;;;;;;;2.77;1.20;;;15.70;99.90;;;;;;5062836;28;20199;-46
2021/10/07 10:52:25;;;;;;;1.30;1.00;;;15.70;99.90;;;;;;5064046;28;20214;-49
2021/10/07 10:54:54;;;;;;;1.90;1.27;;;15.80;99.90;;;;;;5062752;28;20190;-48
2021/10/07 10:57:32;;;;;;;1.73;1.20;;;15.80;99.90;;;;;;5064786;28;20211;-48
2021/10/07 11:00:08;;;;;;;2.43;1.43;;;15.90;99.90;;;;;;5053680;28;20199;-49
2021/10/07 11:02:35;;;;;;;2.83;0.97;;;15.80;99.90;;;;;;5061432;28;20221;-50
2021/10/07 11:05:12;;;;;;;1.33;0.80;;;15.90;99.90;;;;;;5064899;28;20202;-47
2021/10/07 11:07:39;;;;;;;2.30;1.30;;;15.90;99.90;;;;;;5061271;28;20858;-53
2021/10/07 11:10:11;;;;;;;2.43;1.00;;;15.90;99.90;;;;;;5067868;28;20198;-49
2021/10/07 11:12:49;;;;;;;2.10;1.10;;;15.90;99.90;;;;;;5060734;28;20215;-49
2021/10/07 11:15:16;;;;;;;3.23;0.90;;;16.00;99.90;;;;;;5058427;28;20221;-48
2021/10/07 11:17:45;;;;;;;1.73;1.50;;;16.00;99.90;;;;;;5060114;28;20292;-48
2021/10/07 11:20:14;;;;;;;2.00;0.90;;;16.10;99.90;;;;;;5058709;28;20206;-49
2021/10/07 11:22:55;;;;;;;0.83;0.83;;;16.10;99.90;;;;;;5060306;28;20925;-46
2021/10/07 11:25:22;;;;;;;0.70;0.60;;;16.20;99.90;;;;;;5064319;28;20691;-52
2021/10/07 11:27:50;;;;;;;1.53;0.97;;;16.20;99.90;;;;;;5061692;28;20199;-49
2021/10/07 11:30:20;;;;;;;2.97;1.20;;;16.20;99.90;;;;;;5055282;28;20206;-53
2021/10/07 11:32:47;;;;;;;1.93;1.03;;;16.30;99.90;;;;;;5060315;28;20805;-48
2021/10/07 11:35:16;;;;;;;2.10;0.90;;;16.40;99.90;;;;;;5064545;28;20207;-48
2021/10/07 11:37:45;;;;;;;0.80;0.80;;;16.40;99.90;;;;;;5060227;28;20278;-47
2021/10/07 11:40:19;;;;;;;2.00;1.07;;;16.30;99.90;;;;;;5064585;28;20562;-54
2021/10/07 11:42:46;;;;;;;1.63;1.00;;;16.30;99.90;;;;;;5060605;28;20284;-55
2021/10/07 11:45:22;;;;;;;1.07;0.90;;;16.40;99.90;;;;;;5051913;28;20211;-50
2021/10/07 11:47:50;;;;;;;1.70;1.00;;;16.50;99.90;;;;;;5059795;28;20201;-47
2021/10/07 11:50:18;;;;;;;4.13;1.00;;;16.50;99.90;;;;;;5064212;28;20206;-45
2021/10/07 11:52:45;;;;;;;1.30;1.03;;;16.50;99.90;;;;;;5060179;28;20518;-45
2021/10/07 11:55:12;;;;;;;1.50;0.73;;;16.50;99.90;;;;;;5063978;28;20207;-48
2021/10/07 11:57:49;;;;;;;1.23;1.00;;;16.60;99.90;;;;;;5060462;28;20860;-50
2021/10/07 12:00:32;;;;;;;2.07;0.80;;;16.60;99.90;;;;;;5063930;28;20248;-47
2021/10/07 12:03:13;;;;;;;2.03;1.00;;;16.70;99.90;;;;;;5059546;28;20753;-45
2021/10/07 12:05:40;;;;;;;1.20;0.90;;;16.80;99.90;;;;;;5059735;28;20191;-49
2021/10/07 12:08:08;;;;;;;1.40;0.97;;;16.90;99.90;;;;;;5064316;28;20206;-47
2021/10/07 12:10:37;;;;;;;1.10;1.00;;;16.90;99.90;;;;;;5061460;28;20199;-51
2021/10/07 12:13:08;;;;;;;2.53;0.90;;;16.80;99.90;;;;;;5063732;28;20594;-48
2021/10/07 12:15:38;;;;;;;1.97;1.00;;;16.90;99.90;;;;;;5050160;28;20209;-54
2021/10/07 12:18:06;;;;;;;1.33;0.90;;;16.90;99.90;;;;;;5061944;28;20690;-47
2021/10/07 12:20:33;;;;;;;1.30;1.20;;;16.90;99.90;;;;;;5060811;28;20199;-51
2021/10/07 12:23:05;;;;;;;1.83;1.23;;;16.90;99.90;;;;;;5062634;28;20233;-51
2021/10/07 12:25:43;;;;;;;2.40;1.00;;;16.90;99.90;;;;;;5060777;28;20206;-50
2021/10/07 12:28:17;;;;;;;1.23;0.90;;;17.00;99.90;;;;;;5057038;28;20202;-50
2021/10/07 12:30:53;;;;;;;1.10;0.90;;;17.10;99.90;;;;;;5053818;28;20183;-46
2021/10/07 12:33:20;;;;;;;2.10;0.73;;;17.10;99.90;;;;;;5049973;28;20586;-55
2021/10/07 12:36:14;;;;;;;1.40;0.90;;;17.00;99.90;;;;;;5059633;28;20199;-46
2021/10/07 12:38:50;;;;;;;1.40;0.47;;;17.10;99.90;;;;;;5043474;28;20198;-48
2021/10/07 12:41:17;;;;;;;0.60;0.50;;;16.80;99.90;;;;;;5058901;28;20201;-47
2021/10/07 12:43:54;;;;;;;2.93;1.17;;;17.30;99.90;;;;;;5058663;28;20953;-49
2021/10/07 12:46:23;;;;;;;1.50;1.37;;;17.20;99.90;;;;;;5056955;28;20202;-47
2021/10/07 12:48:52;;;;;;;0.80;0.80;;;17.20;99.90;;;;;;5048899;28;20207;-49
2021/10/07 12:51:21;;;;;;;1.70;0.90;;;17.10;99.90;;;;;;5062962;28;20198;-50
2021/10/07 12:53:49;;;;;;;2.30;0.60;;;17.30;99.90;;;;;;5059827;28;20215;-49
2021/10/07 12:56:21;;;;;;;1.33;0.60;;;17.30;99.90;;;;;;5063359;28;20209;-50
2021/10/07 12:58:49;;;;;;;0.70;0.60;;;17.50;99.90;;;;;;5059845;28;20191;-47
2021/10/07 13:01:18;;;;;;;0.53;0.53;;;17.50;99.90;;;;;;5062870;28;20676;-45